Time;durP1;ratioP1;P1;durP2;ratioP2;P2;SDS_P1;SDS_P2;PMS_P1;PMS_P2;Temp;Humidity;BMP_temperature;BMP_pressure;BME280_temperature;BME280_humidity;BME280_pressure;Samples;Min_cycle;Max_cycle;Signal;HPM_P1;HPM_P2
2022/05/11 00:01:35;;;;;;;;;;;;;;;16.76;nan;99586.75;4958870;28;19939;-86
2022/05/11 00:04:00;;;;;;;;;;;;;;;16.66;nan;99585.91;4957036;28;20528;-85
2022/05/11 00:06:27;;;;;;;;;;;;;;;16.54;nan;99580.72;4965901;28;19992;-86
2022/05/11 00:08:56;;;;;;;;;;;;;;;16.42;nan;99584.47;4975041;28;19979;-86
2022/05/11 00:11:21;;;;;;;;;;;;;;;16.40;nan;99581.09;4952585;28;19942;-86
2022/05/11 00:13:47;;;;;;;;;;;;;;;16.36;nan;99585.00;4953287;28;20322;-86
2022/05/11 00:16:12;;;;;;;;;;;;;;;16.35;nan;99585.97;4955186;28;19936;-86
2022/05/11 00:18:38;;;;;;;;;;;;;;;16.38;nan;99588.34;4954496;28;20035;-86
2022/05/11 00:21:03;;;;;;;;;;;;;;;16.40;nan;99578.47;4952078;28;19937;-86
2022/05/11 00:23:28;;;;;;;;;;;;;;;16.40;nan;99580.28;4957361;28;20080;-86
2022/05/11 00:25:54;;;;;;;;;;;;;;;16.40;nan;99580.28;4967302;28;19929;-86
2022/05/11 00:28:19;;;;;;;;;;;;;;;16.39;nan;99579.44;4955228;28;19944;-84
2022/05/11 00:30:44;;;;;;;;;;;;;;;16.40;nan;99581.09;4949731;28;19933;-85
2022/05/11 00:33:14;;;;;;;;;;;;;;;16.37;nan;99576.09;4956411;28;19982;-85
2022/05/11 00:35:39;;;;;;;;;;;;;;;16.33;nan;99577.31;4967164;28;19939;-85
2022/05/11 00:38:05;;;;;;;;;;;;;;;16.29;nan;99578.56;4956129;28;20042;-85
2022/05/11 00:40:30;;;;;;;;;;;;;;;16.26;nan;99578.84;4952817;28;19933;-85
2022/05/11 00:42:56;;;;;;;;;;;;;;;16.24;nan;99576.31;4953281;28;19985;-85
2022/05/11 00:45:21;;;;;;;;;;;;;;;16.23;nan;99574.66;4952087;28;20031;-85
2022/05/11 00:47:50;;;;;;;;;;;;;;;16.22;nan;99577.41;4955306;28;20598;-85
2022/05/11 00:50:19;;;;;;;;;;;;;;;16.21;nan;99573.09;4957497;28;20044;-85
2022/05/11 00:52:48;;;;;;;;;;;;;;;16.20;nan;99574.06;4957874;28;20579;-86
2022/05/11 00:55:21;;;;;;;;;;;;;;;16.18;nan;99571.56;4958523;28;19963;-85
2022/05/11 00:57:50;;;;;;;;;;;;;;;16.13;nan;99571.94;4957333;28;19986;-85
2022/05/11 01:00:15;;;;;;;;;;;;;;;16.07;nan;99567.19;4959095;28;19936;-85
2022/05/11 01:02:42;;;;;;;;;;;;;;;15.99;nan;99574.13;4979286;28;20260;-85
2022/05/11 01:05:08;;;;;;;;;;;;;;;15.91;nan;99565.03;4979031;28;19941;-86
2022/05/11 01:07:33;;;;;;;;;;;;;;;15.83;nan;99567.50;4978823;28;20177;-85
2022/05/11 01:09:59;;;;;;;;;;;;;;;15.79;nan;99573.19;4966961;28;20148;-85
2022/05/11 01:12:31;;;;;;;;;;;;;;;15.73;nan;99571.91;4963071;28;20000;-85
2022/05/11 01:15:00;;;;;;;;;;;;;;;15.69;nan;99570.50;4960293;28;20023;-85
2022/05/11 01:17:27;;;;;;;;;;;;;;;15.66;nan;99570.72;4968554;28;20012;-86
2022/05/11 01:19:55;;;;;;;;;;;;;;;15.59;nan;99565.13;4978336;28;20042;-85
2022/05/11 01:22:25;;;;;;;;;;;;;;;15.56;nan;99564.56;4966801;28;19993;-84
2022/05/11 01:24:51;;;;;;;;;;;;;;;15.49;nan;99570.34;4953967;28;19939;-85
2022/05/11 01:27:25;;;;;;;;;;;;;;;15.46;nan;99573.25;4974169;28;19927;-86
2022/05/11 01:29:51;;;;;;;;;;;;;;;15.48;nan;99567.84;4975117;28;19923;-86
2022/05/11 01:32:17;;;;;;;;;;;;;;;15.48;nan;99571.31;4970744;28;19960;-85
2022/05/11 01:34:43;;;;;;;;;;;;;;;15.48;nan;99568.69;4966899;28;20051;-86
2022/05/11 01:37:08;;;;;;;;;;;;;;;15.47;nan;99576.72;4954169;28;20000;-85
2022/05/11 01:39:33;;;;;;;;;;;;;;;15.46;nan;99573.25;4959077;28;20434;-85
2022/05/11 01:41:59;;;;;;;;;;;;;;;15.47;nan;99568.78;4959048;28;19928;-86
2022/05/11 01:44:24;;;;;;;;;;;;;;;15.47;nan;99567.00;4976307;28;20022;-85
2022/05/11 01:46:53;;;;;;;;;;;;;;;15.47;nan;99572.31;4974334;28;19928;-86
2022/05/11 01:49:19;;;;;;;;;;;;;;;15.42;nan;99571.00;4976217;28;19973;-85
2022/05/11 01:51:45;;;;;;;;;;;;;;;15.30;nan;99564.09;4978312;28;19932;-86
2022/05/11 01:54:11;;;;;;;;;;;;;;;15.24;nan;99571.56;4979245;28;19976;-85
2022/05/11 01:56:37;;;;;;;;;;;;;;;15.23;nan;99569.91;4973566;28;19982;-86
2022/05/11 01:59:02;;;;;;;;;;;;;;;15.20;nan;99564.00;4971160;28;20019;-86
2022/05/11 02:01:29;;;;;;;;;;;;;;;15.11;nan;99560.34;4979286;28;19977;-86
2022/05/11 02:03:54;;;;;;;;;;;;;;;15.06;nan;99567.81;4977517;28;19951;-86
2022/05/11 02:09:04;;;;;;;;;;;;;;;14.95;nan;99565.22;4955840;28;19940;-85
2022/05/11 02:11:29;;;;;;;;;;;;;;;14.91;nan;99569.09;4972231;28;19946;-86
2022/05/11 02:13:57;;;;;;;;;;;;;;;14.86;nan;99561.53;4959048;28;20373;-86
2022/05/11 02:16:23;;;;;;;;;;;;;;;14.81;nan;99566.34;4956308;28;19938;-86
2022/05/11 02:18:48;;;;;;;;;;;;;;;14.78;nan;99563.97;4953954;28;20066;-86
2022/05/11 02:21:13;;;;;;;;;;;;;;;14.81;nan;99558.44;4960454;28;19956;-85
2022/05/11 02:23:39;;;;;;;;;;;;;;;14.81;nan;99561.91;4961565;28;19967;-86
2022/05/11 02:26:05;;;;;;;;;;;;;;;14.78;nan;99561.31;4957108;28;20087;-87
2022/05/11 02:28:30;;;;;;;;;;;;;;;14.71;nan;99560.13;4954877;28;20338;-86
2022/05/11 02:30:57;;;;;;;;;;;;;;;14.70;nan;99551.38;4960539;28;19969;-86
2022/05/11 02:33:23;;;;;;;;;;;;;;;14.72;nan;99556.53;4958437;28;20043;-86
2022/05/11 02:35:49;;;;;;;;;;;;;;;14.74;nan;99557.25;4957314;28;19972;-86
2022/05/11 02:38:16;;;;;;;;;;;;;;;14.71;nan;99546.91;4953518;28;20040;-87
2022/05/11 02:40:43;;;;;;;;;;;;;;;14.69;nan;99557.63;4950589;28;20132;-86
2022/05/11 02:43:10;;;;;;;;;;;;;;;14.68;nan;99548.00;4956355;28;19969;-87
2022/05/11 02:45:36;;;;;;;;;;;;;;;14.63;nan;99555.47;4958382;28;20439;-86
2022/05/11 02:48:02;;;;;;;;;;;;;;;14.61;nan;99549.50;4953264;28;20060;-86
2022/05/11 02:50:39;;;;;;;;;;;;;;;14.63;nan;99546.69;4958392;28;20430;-86
2022/05/11 02:53:07;;;;;;;;;;;;;;;14.65;nan;99552.72;4951201;28;20087;-87
2022/05/11 02:55:34;;;;;;;;;;;;;;;14.66;nan;99555.22;4957178;28;19972;-85
2022/05/11 02:57:59;;;;;;;;;;;;;;;14.68;nan;99555.94;4957395;28;19973;-87
2022/05/11 03:00:25;;;;;;;;;;;;;;;14.70;nan;99559.31;4949942;28;19965;-86
2022/05/11 03:02:50;;;;;;;;;;;;;;;14.67;nan;99556.91;4967566;28;19980;-86
2022/05/11 03:05:15;;;;;;;;;;;;;;;14.64;nan;99554.53;4954050;28;19970;-86
2022/05/11 03:07:41;;;;;;;;;;;;;;;14.61;nan;99554.78;4954812;28;19969;-87
2022/05/11 03:10:07;;;;;;;;;;;;;;;14.56;nan;99549.03;4953449;28;20366;-86
2022/05/11 03:12:32;;;;;;;;;;;;;;;14.53;nan;99557.22;4955808;28;19975;-86
2022/05/11 03:14:58;;;;;;;;;;;;;;;14.52;nan;99547.53;4953182;28;20000;-86
2022/05/11 03:17:24;;;;;;;;;;;;;;;14.50;nan;99554.75;4955133;28;20465;-86
2022/05/11 03:19:49;;;;;;;;;;;;;;;14.47;nan;99555.00;4956276;28;20271;-86
2022/05/11 03:22:14;;;;;;;;;;;;;;;14.47;nan;99552.34;4958618;28;20323;-86
2022/05/11 03:24:40;;;;;;;;;;;;;;;14.45;nan;99549.03;4953711;28;19969;-86
2022/05/11 03:27:05;;;;;;;;;;;;;;;14.45;nan;99549.03;4955305;28;20477;-86
2022/05/11 03:29:31;;;;;;;;;;;;;;;14.43;nan;99550.94;4955774;28;19976;-86
2022/05/11 03:34:41;;;;;;;;;;;;;;;14.38;nan;99540.72;4956068;28;20031;-87
2022/05/11 03:37:10;;;;;;;;;;;;;;;14.31;nan;99539.53;4950867;28;19969;-86
2022/05/11 03:39:36;;;;;;;;;;;;;;;14.30;nan;99536.06;4960161;28;19980;-86
2022/05/11 03:42:02;;;;;;;;;;;;;;;14.29;nan;99537.03;4955503;28;19977;-87
2022/05/11 03:44:28;;;;;;;;;;;;;;;14.26;nan;99539.94;4954455;28;20028;-86
2022/05/11 03:46:56;;;;;;;;;;;;;;;14.27;nan;99533.66;4959252;28;20406;-86
2022/05/11 03:49:22;;;;;;;;;;;;;;;14.26;nan;99539.09;4954699;28;19976;-85
2022/05/11 03:52:27;;;;;;;;;;;;;;;14.17;nan;99540.63;4954932;28;20515;-86
2022/05/11 03:55:18;;;;;;;;;;;;;;;14.08;nan;99539.56;4955806;28;20414;-85
2022/05/11 03:57:43;;;;;;;;;;;;;;;14.03;nan;99546.19;4953732;28;19979;-85
2022/05/11 04:00:11;;;;;;;;;;;;;;;14.02;nan;99544.53;4949919;28;19965;-85
2022/05/11 04:02:43;;;;;;;;;;;;;;;14.00;nan;99543.78;4955068;28;19992;-85
2022/05/11 04:05:13;;;;;;;;;;;;;;;13.96;nan;99545.84;4956693;28;20056;-85
2022/05/11 04:07:46;;;;;;;;;;;;;;;13.94;nan;99540.66;4955467;28;19967;-83
2022/05/11 04:10:20;;;;;;;;;;;;;;;13.94;nan;99545.94;4957481;28;19965;-85
2022/05/11 04:12:48;;;;;;;;;;;;;;;13.95;nan;99537.06;4958192;28;19999;-86
2022/05/11 04:15:14;;;;;;;;;;;;;;;14.01;nan;99545.47;4955046;28;19981;-85
2022/05/11 04:17:40;;;;;;;;;;;;;;;14.04;nan;99550.50;4956667;28;20036;-85
2022/05/11 04:20:05;;;;;;;;;;;;;;;14.06;nan;99545.94;4952498;28;19984;-85
2022/05/11 04:22:31;;;;;;;;;;;;;;;14.09;nan;99548.34;4956346;28;20012;-85
2022/05/11 04:24:57;;;;;;;;;;;;;;;14.07;nan;99545.84;4955730;28;20428;-86
2022/05/11 04:27:23;;;;;;;;;;;;;;;14.10;nan;99553.50;4956389;28;19980;-86
2022/05/11 04:29:48;;;;;;;;;;;;;;;14.14;nan;99543.53;4952403;28;19970;-84
2022/05/11 04:32:14;;;;;;;;;;;;;;;14.19;nan;99551.09;4955918;28;20427;-86
2022/05/11 04:34:41;;;;;;;;;;;;;;;14.22;nan;99549.03;4952865;28;20005;-85
2022/05/11 04:37:07;;;;;;;;;;;;;;;14.24;nan;99551.56;4951885;28;19965;-85
2022/05/11 04:39:33;;;;;;;;;;;;;;;14.28;nan;99545.91;4954616;28;19977;-85
2022/05/11 04:41:59;;;;;;;;;;;;;;;14.28;nan;99543.25;4970723;28;19969;-85
2022/05/11 04:44:24;;;;;;;;;;;;;;;14.29;nan;99542.31;4955334;28;20328;-86
2022/05/11 04:46:49;;;;;;;;;;;;;;;14.28;nan;99543.25;4954015;28;19973;-86
2022/05/11 04:49:20;;;;;;;;;;;;;;;14.35;nan;99546.28;4953105;28;20000;-85
2022/05/11 04:51:47;;;;;;;;;;;;;;;14.57;nan;99556.81;4955337;28;19976;-85
2022/05/11 04:54:13;;;;;;;;;;;;;;;14.92;nan;99554.91;4961248;28;20000;-83
2022/05/11 04:56:38;;;;;;;;;;;;;;;15.27;nan;99557.25;4955249;28;19973;-86
2022/05/11 04:59:05;;;;;;;;;;;;;;;15.61;nan;99552.59;4962840;28;20443;-84
2022/05/11 05:01:31;;;;;;;;;;;;;;;16.00;nan;99552.78;4951371;28;19964;-85
2022/05/11 05:03:56;;;;;;;;;;;;;;;16.44;nan;99555.16;4956925;28;19967;-85
2022/05/11 05:06:22;;;;;;;;;;;;;;;16.92;nan;99546.44;4956962;28;19951;-85
2022/05/11 05:08:47;;;;;;;;;;;;;;;17.49;nan;99544.69;4956918;28;20064;-86
2022/05/11 05:11:12;;;;;;;;;;;;;;;18.03;nan;99539.66;4960557;28;20001;-85
2022/05/11 05:13:40;;;;;;;;;;;;;;;18.47;nan;99530.03;4950851;28;19996;-85
2022/05/11 05:16:06;;;;;;;;;;;;;;;18.85;nan;99536.09;4948979;28;19975;-85
2022/05/11 05:18:32;;;;;;;;;;;;;;;19.17;nan;99543.53;4948950;28;19918;-85
2022/05/11 05:20:58;;;;;;;;;;;;;;;19.51;nan;99536.59;4951038;28;19984;-84
2022/05/11 05:23:23;;;;;;;;;;;;;;;19.82;nan;99540.47;4953201;28;19929;-86
2022/05/11 05:25:49;;;;;;;;;;;;;;;20.06;nan;99542.44;4959301;28;20012;-86
2022/05/11 05:31:06;;;;;;;;;;;;;;;20.63;nan;99538.28;4960460;28;19936;-85
2022/05/11 05:33:33;;;;;;;;;;;;;;;20.95;nan;99540.16;4953204;28;19964;-85
2022/05/11 05:35:59;;;;;;;;;;;;;;;21.21;nan;99538.16;4952302;28;19965;-85
2022/05/11 05:38:25;;;;;;;;;;;;;;;21.44;nan;99532.13;4957571;28;19973;-85
2022/05/11 05:40:50;;;;;;;;;;;;;;;21.67;nan;99542.13;4948094;28;19982;-86
2022/05/11 05:43:16;;;;;;;;;;;;;;;21.90;nan;99537.75;4952111;28;20333;-86
2022/05/11 05:45:46;;;;;;;;;;;;;;;22.15;nan;99540.31;4951538;28;19995;-86
2022/05/11 05:48:13;;;;;;;;;;;;;;;22.38;nan;99535.03;4955572;28;19969;-85
2022/05/11 05:50:39;;;;;;;;;;;;;;;22.59;nan;99534.41;4944903;28;20451;-86
2022/05/11 05:53:07;;;;;;;;;;;;;;;22.82;nan;99537.09;4953876;28;20000;-86
2022/05/11 05:55:32;;;;;;;;;;;;;;;23.04;nan;99532.78;4953239;28;20019;-86
2022/05/11 05:57:59;;;;;;;;;;;;;;;23.23;nan;99526.94;4952057;28;19969;-85
2022/05/11 06:00:25;;;;;;;;;;;;;;;23.37;nan;99528.78;4954870;28;20433;-86
2022/05/11 06:02:50;;;;;;;;;;;;;;;23.58;nan;99529.94;4952980;28;19981;-85
2022/05/11 06:05:15;;;;;;;;;;;;;;;23.80;nan;99530.91;4946621;28;19966;-85
2022/05/11 06:07:41;;;;;;;;;;;;;;;24.01;nan;99539.03;4952155;28;20380;-85
2022/05/11 06:10:06;;;;;;;;;;;;;;;24.16;nan;99530.13;4949704;28;19972;-85
2022/05/11 06:12:32;;;;;;;;;;;;;;;24.36;nan;99528.53;4950097;28;19972;-85
2022/05/11 06:14:57;;;;;;;;;;;;;;;24.57;nan;99525.06;4945308;28;20818;-85
2022/05/11 06:17:23;;;;;;;;;;;;;;;24.71;nan;99521.50;4953393;28;19969;-85
2022/05/11 06:19:49;;;;;;;;;;;;;;;24.84;nan;99525.34;4949676;28;19985;-86
2022/05/11 06:22:15;;;;;;;;;;;;;;;25.01;nan;99518.69;4952845;28;20479;-85
2022/05/11 06:24:40;;;;;;;;;;;;;;;25.17;nan;99523.00;4959727;28;20051;-84
2022/05/11 06:27:07;;;;;;;;;;;;;;;25.36;nan;99521.50;4941258;28;19977;-86
2022/05/11 06:29:32;;;;;;;;;;;;;;;25.54;nan;99520.97;4942167;28;19969;-86
2022/05/11 06:31:57;;;;;;;;;;;;;;;25.74;nan;99513.88;4954048;28;19980;-85
2022/05/11 06:34:24;;;;;;;;;;;;;;;25.93;nan;99506.97;4947183;28;20787;-86
2022/05/11 06:36:50;;;;;;;;;;;;;;;26.07;nan;99507.03;4945564;28;20554;-85
2022/05/11 06:39:15;;;;;;;;;;;;;;;26.21;nan;99506.88;4947150;28;19969;-85
2022/05/11 06:41:41;;;;;;;;;;;;;;;26.34;nan;99503.38;4959257;28;20566;-86
2022/05/11 06:44:08;;;;;;;;;;;;;;;26.37;nan;99496.78;4945795;28;19974;-86
2022/05/11 06:46:34;;;;;;;;;;;;;;;26.32;nan;99499.25;4948529;28;19973;-85
2022/05/11 06:48:59;;;;;;;;;;;;;;;26.35;nan;99490.75;4944227;28;20055;-85
2022/05/11 06:51:24;;;;;;;;;;;;;;;26.41;nan;99495.31;4947854;28;20112;-86
2022/05/11 07:01:45;;;;;;;;;;;;;;;27.00;nan;99486.50;4946692;28;20577;-85
2022/05/11 07:04:11;;;;;;;;;;;;;;;27.10;nan;99483.41;4944054;28;19972;-85
2022/05/11 07:06:36;;;;;;;;;;;;;;;27.18;nan;99482.41;4950255;28;20214;-85
2022/05/11 07:09:02;;;;;;;;;;;;;;;27.10;nan;99480.72;4948272;28;19961;-85
2022/05/11 07:14:13;;;;;;;;;;;;;;;27.26;nan;99476.81;4947636;28;20494;-86
2022/05/11 07:16:39;;;;;;;;;;;;;;;27.61;nan;99474.66;4949005;28;19977;-85
2022/05/11 07:19:05;;;;;;;;;;;;;;;27.85;nan;99470.47;4946584;28;19929;-85
2022/05/11 07:21:30;;;;;;;;;;;;;;;28.07;nan;99470.16;4949475;28;19940;-85
2022/05/11 07:23:56;;;;;;;;;;;;;;;28.31;nan;99471.28;4947010;28;19921;-85
2022/05/11 07:26:21;;;;;;;;;;;;;;;28.61;nan;99469.66;4943999;28;19937;-84
2022/05/11 07:28:46;;;;;;;;;;;;;;;28.75;nan;99464.16;4950820;28;19948;-85
2022/05/11 07:31:12;;;;;;;;;;;;;;;28.86;nan;99463.47;4947442;28;19932;-85
2022/05/11 07:33:38;;;;;;;;;;;;;;;29.06;nan;99460.63;4948956;28;19991;-85
2022/05/11 07:36:04;;;;;;;;;;;;;;;29.06;nan;99464.16;4950265;28;19955;-85
2022/05/11 07:38:29;;;;;;;;;;;;;;;29.10;nan;99470.75;4954365;28;19944;-85
2022/05/11 07:40:55;;;;;;;;;;;;;;;29.15;nan;99459.28;4958213;28;19949;-85
2022/05/11 07:43:40;;;;;;;;;;;;;;;29.55;nan;99464.31;4964975;28;19943;-84
2022/05/11 07:46:06;;;;;;;;;;;;;;;29.71;nan;99463.75;4972435;28;20198;-84
2022/05/11 07:48:31;;;;;;;;;;;;;;;29.94;nan;99459.50;4968805;28;20351;-84
2022/05/11 07:50:56;;;;;;;;;;;;;;;30.08;nan;99460.97;4951442;28;19979;-85
2022/05/11 07:53:22;;;;;;;;;;;;;;;29.95;nan;99455.75;4947562;28;20349;-86
2022/05/11 07:59:51;;;;;;;;;;;;;;;29.51;nan;99465.78;4949535;28;20418;-85
2022/05/11 08:01:16;;;;;;;;;;;;;;;30.09;nan;99448.28;4951159;28;20431;-85
2022/05/11 08:03:42;;;;;;;;;;;;;;;30.20;nan;99450.19;4959542;28;19948;-85
2022/05/11 08:06:07;;;;;;;;;;;;;;;30.43;nan;99446.75;4967418;28;19933;-84
2022/05/11 08:08:32;;;;;;;;;;;;;;;30.52;nan;99445.41;4967608;28;19932;-85
2022/05/11 08:10:58;;;;;;;;;;;;;;;30.16;nan;99443.56;4960325;28;19995;-83
2022/05/11 08:13:24;;;;;;;;;;;;;;;29.89;nan;99441.22;4947144;28;20670;-86
2022/05/11 08:15:50;;;;;;;;;;;;;;;30.01;nan;99443.19;4940491;28;19943;-86
2022/05/11 08:18:18;;;;;;;;;;;;;;;29.95;nan;99442.22;4940628;28;20008;-85
2022/05/11 08:20:44;;;;;;;;;;;;;;;29.83;nan;99444.03;4943208;28;20011;-85
2022/05/11 08:23:10;;;;;;;;;;;;;;;29.81;nan;99436.09;4944739;28;19936;-85
2022/05/11 08:25:36;;;;;;;;;;;;;;;29.88;nan;99438.75;4938490;28;19939;-85
2022/05/11 08:28:02;;;;;;;;;;;;;;;29.85;nan;99441.91;4946593;28;19928;-85
2022/05/11 08:33:19;;;;;;;;;;;;;;;29.68;nan;99439.00;4941942;28;19959;-85
2022/05/11 08:35:45;;;;;;;;;;;;;;;29.67;nan;99442.75;4943789;28;19922;-85
2022/05/11 08:38:11;;;;;;;;;;;;;;;29.54;nan;99439.13;4940565;28;19937;-85
2022/05/11 08:40:39;;;;;;;;;;;;;;;29.33;nan;99442.28;4939564;28;19933;-85
2022/05/11 08:43:12;;;;;;;;;;;;;;;29.21;nan;99439.47;4939732;28;19933;-85
2022/05/11 08:45:40;;;;;;;;;;;;;;;29.26;nan;99441.50;4940092;28;19963;-85
2022/05/11 08:48:10;;;;;;;;;;;;;;;29.30;nan;99443.53;4946411;28;19978;-87
2022/05/11 08:50:42;;;;;;;;;;;;;;;29.19;nan;99444.28;4942345;28;19987;-84
2022/05/11 08:53:18;;;;;;;;;;;;;;;29.11;nan;99445.41;4949123;28;19962;-83
2022/05/11 08:55:46;;;;;;;;;;;;;;;29.04;nan;99438.38;4943773;28;19940;-84
2022/05/11 08:58:15;;;;;;;;;;;;;;;29.11;nan;99434.56;4943540;28;19940;-85
2022/05/11 09:00:41;;;;;;;;;;;;;;;29.05;nan;99430.03;4944148;28;19936;-85
2022/05/11 09:03:30;;;;;;;;;;;;;;;29.01;nan;99436.09;4946739;28;20040;-84
2022/05/11 09:05:57;;;;;;;;;;;;;;;29.06;nan;99431.72;4942351;28;19928;-87
2022/05/11 09:08:22;;;;;;;;;;;;;;;28.84;nan;99423.13;4946452;28;20078;-85
2022/05/11 09:10:47;;;;;;;;;;;;;;;28.80;nan;99429.19;4946789;28;20071;-84
2022/05/11 09:13:14;;;;;;;;;;;;;;;28.75;nan;99437.13;4946623;28;19932;-84
2022/05/11 09:15:53;;;;;;;;;;;;;;;28.82;nan;99422.53;4944678;28;20581;-84
2022/05/11 09:18:18;;;;;;;;;;;;;;;28.82;nan;99425.22;4946998;28;19947;-84
2022/05/11 09:20:50;;;;;;;;;;;;;;;28.87;nan;99422.69;4943704;28;20056;-85
2022/05/11 09:23:26;;;;;;;;;;;;;;;28.91;nan;99425.78;4945666;28;19936;-85
2022/05/11 09:25:56;;;;;;;;;;;;;;;28.93;nan;99426.38;4946557;28;20038;-85
2022/05/11 09:28:24;;;;;;;;;;;;;;;28.96;nan;99419.72;4942097;28;19939;-84
2022/05/11 09:31:04;;;;;;;;;;;;;;;28.93;nan;99415.56;4947991;28;19983;-85
2022/05/11 09:33:31;;;;;;;;;;;;;;;29.03;nan;99409.63;4944467;28;20560;-85
2022/05/11 09:35:57;;;;;;;;;;;;;;;29.00;nan;99415.50;4944641;28;19988;-84
2022/05/11 09:38:27;;;;;;;;;;;;;;;28.88;nan;99405.41;4949255;28;19933;-84
2022/05/11 09:40:57;;;;;;;;;;;;;;;28.94;nan;99411.81;4941998;28;19933;-84
2022/05/11 09:43:41;;;;;;;;;;;;;;;29.06;nan;99420.88;4944274;28;20023;-85
2022/05/11 09:46:27;;;;;;;;;;;;;;;29.17;nan;99407.69;4942001;28;19975;-85
2022/05/11 09:48:58;;;;;;;;;;;;;;;29.14;nan;99421.63;4941487;28;20612;-85
2022/05/11 09:51:27;;;;;;;;;;;;;;;29.19;nan;99417.25;4939002;28;19999;-85
2022/05/11 09:53:58;;;;;;;;;;;;;;;29.43;nan;99417.38;4944007;28;19921;-85
2022/05/11 09:56:33;;;;;;;;;;;;;;;29.51;nan;99411.66;4947292;28;19932;-86
2022/05/11 09:59:18;;;;;;;;;;;;;;;29.60;nan;99404.91;4948549;28;19935;-87
2022/05/11 10:01:44;;;;;;;;;;;;;;;29.67;nan;99408.38;4947394;28;20021;-86
2022/05/11 10:04:10;;;;;;;;;;;;;;;29.80;nan;99398.44;4943161;28;19933;-85
2022/05/11 10:06:42;;;;;;;;;;;;;;;29.84;nan;99405.91;4942429;28;20354;-85
2022/05/11 10:09:09;;;;;;;;;;;;;;;29.91;nan;99398.50;4943212;28;20465;-85
2022/05/11 10:11:39;;;;;;;;;;;;;;;29.80;nan;99387.63;4943450;28;20446;-85
2022/05/11 10:22:47;;;;;;;;;;;;;;;30.10;nan;99383.03;4951720;28;20087;-86
2022/05/11 10:25:13;;;;;;;;;;;;;;;30.09;nan;99392.22;4945660;28;19932;-85
2022/05/11 10:27:41;;;;;;;;;;;;;;;30.09;nan;99372.44;4941793;28;19932;-86
2022/05/11 10:30:24;;;;;;;;;;;;;;;30.09;nan;99380.56;4942356;28;19932;-88
2022/05/11 10:32:49;;;;;;;;;;;;;;;30.10;nan;99377.59;4951188;28;19940;-84
2022/05/11 10:35:21;;;;;;;;;;;;;;;30.10;nan;99374.91;4946693;28;19948;-86
2022/05/11 10:38:05;;;;;;;;;;;;;;;30.07;nan;99385.38;4945943;28;20073;-85
2022/05/11 10:40:36;;;;;;;;;;;;;;;30.09;nan;99369.72;4944281;28;19971;-85
2022/05/11 10:43:04;;;;;;;;;;;;;;;30.19;nan;99362.69;4950990;28;20710;-85
2022/05/11 10:45:44;;;;;;;;;;;;;;;30.32;nan;99371.69;4947910;28;19986;-85
2022/05/11 10:48:09;;;;;;;;;;;;;;;30.49;nan;99371.81;4950069;28;19933;-85
2022/05/11 10:50:41;;;;;;;;;;;;;;;30.62;nan;99364.34;4949880;28;19932;-85
2022/05/11 10:53:16;;;;;;;;;;;;;;;30.59;nan;99364.78;4952471;28;19937;-85
2022/05/11 10:55:48;;;;;;;;;;;;;;;30.40;nan;99365.94;4951683;28;19932;-85
2022/05/11 10:58:38;;;;;;;;;;;;;;;30.29;nan;99364.03;4955651;28;20456;-85
2022/05/11 11:01:09;;;;;;;;;;;;;;;30.23;nan;99360.38;4948168;28;20017;-85
2022/05/11 11:03:40;;;;;;;;;;;;;;;30.24;nan;99353.06;4954845;28;19994;-85
2022/05/11 11:09:02;;;;;;;;;;;;;;;30.06;nan;99343.94;4947608;28;19929;-85
2022/05/11 11:11:41;;;;;;;;;;;;;;;30.04;nan;99350.63;4950436;28;19932;-84
2022/05/11 11:14:09;;;;;;;;;;;;;;;30.01;nan;99341.09;4946676;28;20748;-85
2022/05/11 11:16:36;;;;;;;;;;;;;;;29.93;nan;99341.41;4949487;28;19933;-83
2022/05/11 11:19:03;;;;;;;;;;;;;;;29.91;nan;99340.81;4946471;28;19939;-84
2022/05/11 11:21:28;;;;;;;;;;;;;;;29.95;nan;99325.75;4947317;28;19933;-84
2022/05/11 11:24:12;;;;;;;;;;;;;;;29.96;nan;99330.09;4953161;28;19929;-86
2022/05/11 11:26:43;;;;;;;;;;;;;;;29.95;nan;99331.19;4966812;28;20323;-87
2022/05/11 11:29:08;;;;;;;;;;;;;;;29.92;nan;99326.19;4950525;28;19928;-85
2022/05/11 11:31:53;;;;;;;;;;;;;;;29.86;nan;99333.38;4945126;28;20406;-86
2022/05/11 11:34:22;;;;;;;;;;;;;;;29.82;nan;99324.06;4952363;28;19956;-86
2022/05/11 11:36:48;;;;;;;;;;;;;;;29.81;nan;99310.75;4948935;28;19932;-85
2022/05/11 11:39:33;;;;;;;;;;;;;;;29.73;nan;99315.44;4954431;28;19929;-86
2022/05/11 11:42:06;;;;;;;;;;;;;;;29.66;nan;99311.19;4954146;28;19932;-86
2022/05/11 11:44:36;;;;;;;;;;;;;;;29.68;nan;99315.31;4948672;28;19960;-86
2022/05/11 11:47:22;;;;;;;;;;;;;;;29.73;nan;99311.88;4947398;28;19940;-85
2022/05/11 11:49:47;;;;;;;;;;;;;;;29.69;nan;99299.88;4947585;28;19941;-85
2022/05/11 11:52:31;;;;;;;;;;;;;;;29.71;nan;99311.31;4960112;28;19970;-86
2022/05/11 11:54:57;;;;;;;;;;;;;;;29.71;nan;99300.50;4948129;28;20050;-88
2022/05/11 11:57:22;;;;;;;;;;;;;;;29.72;nan;99307.53;4950295;28;20008;-85
2022/05/11 11:59:50;;;;;;;;;;;;;;;29.70;nan;99285.28;4952338;28;19936;-84
2022/05/11 12:02:16;;;;;;;;;;;;;;;29.70;nan;99298.81;4948648;28;19980;-85
2022/05/11 12:04:44;;;;;;;;;;;;;;;29.62;nan;99294.50;4950061;28;19975;-87
2022/05/11 12:15:43;;;;;;;;;;;;;;;29.63;nan;99279.94;4946519;28;20453;-85
2022/05/11 12:18:25;;;;;;;;;;;;;;;29.60;nan;99284.97;4951927;28;19983;-86
2022/05/11 12:20:51;;;;;;;;;;;;;;;29.58;nan;99282.50;4951138;28;19937;-86
2022/05/11 12:23:20;;;;;;;;;;;;;;;29.60;nan;99274.16;4946559;28;20310;-85
2022/05/11 12:25:56;;;;;;;;;;;;;;;29.64;nan;99268.09;4963438;28;19933;-85
2022/05/11 12:28:23;;;;;;;;;;;;;;;29.72;nan;99273.16;4954607;28;19943;-86
2022/05/11 12:30:49;;;;;;;;;;;;;;;29.73;nan;99279.41;4969644;28;19948;-85
2022/05/11 12:33:26;;;;;;;;;;;;;;;29.73;nan;99274.00;4968634;28;19959;-86
2022/05/11 12:35:52;;;;;;;;;;;;;;;29.68;nan;99261.16;4969289;28;19936;-84
2022/05/11 12:38:31;;;;;;;;;;;;;;;29.58;nan;99265.47;4964650;28;20567;-85
2022/05/11 12:40:58;;;;;;;;;;;;;;;29.56;nan;99269.19;4972245;28;19954;-85
2022/05/11 12:43:31;;;;;;;;;;;;;;;29.57;nan;99264.63;4972867;28;19940;-86
2022/05/11 12:45:58;;;;;;;;;;;;;;;29.59;nan;99251.69;4966882;28;19971;-85
2022/05/11 12:48:24;;;;;;;;;;;;;;;29.63;nan;99252.88;4968486;28;20321;-86
2022/05/11 12:50:52;;;;;;;;;;;;;;;29.65;nan;99250.81;4962051;28;20155;-86
2022/05/11 12:53:17;;;;;;;;;;;;;;;29.73;nan;99260.44;4965006;28;20019;-87
2022/05/11 12:55:44;;;;;;;;;;;;;;;29.78;nan;99257.88;4966970;28;20031;-85
2022/05/11 12:58:15;;;;;;;;;;;;;;;29.76;nan;99244.59;4971191;28;20006;-87
2022/05/11 13:00:40;;;;;;;;;;;;;;;29.67;nan;99258.69;4972052;28;19946;-86
2022/05/11 13:03:26;;;;;;;;;;;;;;;29.62;nan;99253.09;4968778;28;19949;-85
2022/05/11 13:05:53;;;;;;;;;;;;;;;29.63;nan;99247.47;4971606;28;20563;-86
2022/05/11 13:08:20;;;;;;;;;;;;;;;29.66;nan;99251.63;4975216;28;19936;-85
2022/05/11 13:10:46;;;;;;;;;;;;;;;29.66;nan;99243.50;4972574;28;19936;-85
2022/05/11 13:13:14;;;;;;;;;;;;;;;29.75;nan;99244.81;4971410;28;19948;-85
2022/05/11 13:15:39;;;;;;;;;;;;;;;29.75;nan;99240.22;4977675;28;20023;-86
2022/05/11 13:18:06;;;;;;;;;;;;;;;29.76;nan;99235.66;4969150;28;20279;-86
2022/05/11 13:20:34;;;;;;;;;;;;;;;29.74;nan;99240.47;4980965;28;19932;-85
2022/05/11 13:23:00;;;;;;;;;;;;;;;29.72;nan;99232.56;4972957;28;20442;-86
2022/05/11 13:25:45;;;;;;;;;;;;;;;29.73;nan;99231.53;4972420;28;19936;-85
2022/05/11 13:28:17;;;;;;;;;;;;;;;29.67;nan;99229.72;4973591;28;20064;-85
2022/05/11 13:30:45;;;;;;;;;;;;;;;29.72;nan;99221.72;4983608;28;19932;-86
2022/05/11 13:33:26;;;;;;;;;;;;;;;29.83;nan;99222.00;4990301;28;20000;-84
2022/05/11 13:36:14;;;;;;;;;;;;;;;29.87;nan;99223.19;4990420;28;19939;-86
2022/05/11 13:38:58;;;;;;;;;;;;;;;29.89;nan;99212.94;4977932;28;19951;-86
2022/05/11 13:41:30;;;;;;;;;;;;;;;29.90;nan;99218.13;4969491;28;19928;-85
2022/05/11 13:43:57;;;;;;;;;;;;;;;29.88;nan;99206.69;4971850;28;19932;-85
2022/05/11 13:46:35;;;;;;;;;;;;;;;29.90;nan;99217.31;4971940;28;19932;-86
2022/05/11 13:49:16;;;;;;;;;;;;;;;29.85;nan;99206.34;4970336;28;20480;-87
2022/05/11 13:51:41;;;;;;;;;;;;;;;29.88;nan;99203.19;4987389;28;19948;-86
2022/05/11 13:54:22;;;;;;;;;;;;;;;29.91;nan;99198.09;4990600;28;19936;-87
2022/05/11 13:57:01;;;;;;;;;;;;;;;29.95;nan;99207.44;4973765;28;20290;-85
2022/05/11 13:59:27;;;;;;;;;;;;;;;29.88;nan;99208.59;4967015;28;19948;-86